createdAt,value
2023-08-12T00:01:10.947Z,23.00
2023-08-12T00:03:39.023Z,22.90
2023-08-12T00:06:07.127Z,22.80
2023-08-12T00:08:35.030Z,22.80
2023-08-12T00:11:02.988Z,22.80
2023-08-12T00:13:31.051Z,22.80
2023-08-12T00:15:59.155Z,22.80
2023-08-12T00:18:28.606Z,22.80
2023-08-12T00:20:56.549Z,22.90
2023-08-12T00:23:24.482Z,22.90
2023-08-12T00:25:52.678Z,22.80
2023-08-12T00:28:20.571Z,22.70
2023-08-12T00:30:50.703Z,22.80
2023-08-12T00:33:19.516Z,22.70
2023-08-12T00:35:48.858Z,22.70
2023-08-12T00:38:16.902Z,22.80
2023-08-12T00:40:44.807Z,22.70
2023-08-12T00:43:12.725Z,22.60
2023-08-12T00:45:40.923Z,22.50
2023-08-12T00:48:12.460Z,22.40
2023-08-12T00:50:43.507Z,22.40
2023-08-12T00:53:14.392Z,22.30
2023-08-12T00:55:42.435Z,22.10
2023-08-12T00:58:10.928Z,22.10
2023-08-12T01:00:39.226Z,22.10
2023-08-12T01:03:08.235Z,22.10
2023-08-12T01:05:38.511Z,22.00
2023-08-12T01:08:08.073Z,22.10
2023-08-12T01:10:39.063Z,22.20
2023-08-12T01:13:18.576Z,22.30
2023-08-12T01:15:47.353Z,22.20
2023-08-12T01:18:17.336Z,22.20
2023-08-12T01:20:45.576Z,22.30
2023-08-12T01:23:15.610Z,22.10
2023-08-12T01:25:44.305Z,22.00
2023-08-12T01:28:12.328Z,21.90
2023-08-12T01:30:49.176Z,21.90
2023-08-12T01:33:21.581Z,21.80
2023-08-12T01:35:55.019Z,21.80
2023-08-12T01:38:26.519Z,21.90
2023-08-12T01:40:55.701Z,21.90
2023-08-12T01:43:24.816Z,21.90
2023-08-12T01:45:52.909Z,22.00
2023-08-12T01:48:21.326Z,22.00
2023-08-12T01:50:49.276Z,22.00
2023-08-12T01:53:17.218Z,22.00
2023-08-12T01:55:47.658Z,22.00
2023-08-12T02:00:43.435Z,21.90
2023-08-12T02:03:11.466Z,21.80
2023-08-12T02:05:39.472Z,21.80
2023-08-12T02:08:07.950Z,21.70
2023-08-12T02:10:36.301Z,21.80
2023-08-12T02:13:06.109Z,21.80
2023-08-12T02:15:33.981Z,21.70
2023-08-12T02:18:01.912Z,21.70
2023-08-12T02:20:29.846Z,21.70
2023-08-12T02:22:57.706Z,21.60
2023-08-12T02:25:25.605Z,21.60
2023-08-12T02:27:53.508Z,21.50
2023-08-12T02:30:22.950Z,21.50
2023-08-12T02:32:50.948Z,21.60
2023-08-12T02:35:20.945Z,21.40
2023-08-12T02:37:50.224Z,21.40
2023-08-12T02:40:18.560Z,21.40
2023-08-12T02:42:46.499Z,21.40
2023-08-12T02:45:14.369Z,21.30
2023-08-12T02:47:43.694Z,21.30
2023-08-12T02:50:11.779Z,21.30
2023-08-12T02:52:39.716Z,21.30
2023-08-12T02:55:08.168Z,21.30
2023-08-12T02:57:36.085Z,21.30
2023-08-12T03:00:06.416Z,21.20
2023-08-12T03:02:34.325Z,21.20
2023-08-12T03:05:03.857Z,21.20
2023-08-12T03:07:31.820Z,21.20
2023-08-12T03:10:00.864Z,21.20
2023-08-12T03:12:29.009Z,21.20
2023-08-12T03:14:56.983Z,21.30
2023-08-12T03:17:25.013Z,21.20
2023-08-12T03:19:52.922Z,21.20
2023-08-12T03:22:22.205Z,21.20
2023-08-12T03:24:51.183Z,21.20
2023-08-12T03:27:19.065Z,21.20
2023-08-12T03:29:47.442Z,21.10
2023-08-12T03:32:15.477Z,21.10
2023-08-12T03:34:43.353Z,21.10
2023-08-12T03:37:11.611Z,21.00
2023-08-12T03:39:41.057Z,21.00
2023-08-12T03:42:09.006Z,21.10
2023-08-12T03:44:36.916Z,21.00
2023-08-12T03:47:05.054Z,20.90
2023-08-12T03:49:33.032Z,20.90
2023-08-12T03:52:00.930Z,20.80
2023-08-12T03:54:29.366Z,20.80
2023-08-12T03:56:58.575Z,20.70
2023-08-12T03:59:26.727Z,20.60
2023-08-12T04:01:54.622Z,20.60
2023-08-12T04:04:22.589Z,20.60
2023-08-12T04:06:52.413Z,20.60
2023-08-12T04:09:20.483Z,20.60
2023-08-12T04:11:49.089Z,20.50
2023-08-12T04:14:18.358Z,20.50
2023-08-12T04:16:46.289Z,20.40
2023-08-12T04:19:14.264Z,20.40
2023-08-12T04:21:42.189Z,20.30
2023-08-12T04:24:10.765Z,20.40
2023-08-12T04:26:38.674Z,20.30
2023-08-12T04:29:06.575Z,20.30
2023-08-12T04:31:35.882Z,20.30
2023-08-12T04:34:05.016Z,20.30
2023-08-12T04:36:32.980Z,20.30
2023-08-12T04:39:00.931Z,20.30
2023-08-12T04:41:29.024Z,20.30
2023-08-12T04:43:57.414Z,20.30
2023-08-12T04:46:25.424Z,20.30
2023-08-12T04:48:54.711Z,20.30
2023-08-12T04:51:22.721Z,20.30
2023-08-12T04:53:50.665Z,20.30
2023-08-12T04:56:19.269Z,20.40
2023-08-12T04:58:47.493Z,20.40
2023-08-12T05:01:15.432Z,20.40
2023-08-12T05:03:43.479Z,20.40
2023-08-12T05:06:12.784Z,20.50
2023-08-12T05:08:40.739Z,20.50
2023-08-12T05:11:08.634Z,20.50
2023-08-12T05:13:39.022Z,20.50
2023-08-12T05:16:07.138Z,20.60
2023-08-12T05:18:35.078Z,20.60
2023-08-12T05:21:02.951Z,20.60
2023-08-12T05:23:32.317Z,20.60
2023-08-12T05:26:00.298Z,20.70
2023-08-12T05:30:56.043Z,20.60
2023-08-12T05:33:25.171Z,20.70
2023-08-12T05:35:53.397Z,20.70
2023-08-12T05:38:21.598Z,20.70
2023-08-12T05:40:50.876Z,20.70
2023-08-12T05:43:19.137Z,20.60
2023-08-12T05:45:47.142Z,20.70
2023-08-12T05:48:15.080Z,20.60
2023-08-12T05:50:43.030Z,20.70
2023-08-12T05:53:11.053Z,20.70
2023-08-12T05:55:38.977Z,20.70
2023-08-12T05:58:10.504Z,20.70
2023-08-12T06:00:38.413Z,20.70
2023-08-12T06:03:06.679Z,20.60
2023-08-12T06:05:34.739Z,20.60
2023-08-12T06:08:02.918Z,20.60
2023-08-12T06:12:58.913Z,20.60
2023-08-12T06:15:28.394Z,20.60
2023-08-12T06:17:56.430Z,20.50
2023-08-12T06:20:25.262Z,20.50
2023-08-12T06:22:53.967Z,20.30
2023-08-12T06:25:22.119Z,20.20
2023-08-12T06:27:50.211Z,20.00
2023-08-12T06:30:18.362Z,19.90
2023-08-12T06:32:49.325Z,19.80
2023-08-12T06:35:17.584Z,19.70
2023-08-12T06:37:45.592Z,19.60
2023-08-12T06:40:13.562Z,19.60
2023-08-12T06:42:41.704Z,19.60
2023-08-12T06:45:11.220Z,19.60
2023-08-12T06:47:39.183Z,19.60
2023-08-12T06:50:09.086Z,19.60
2023-08-12T06:52:37.445Z,19.70
2023-08-12T06:55:05.787Z,19.80
2023-08-12T06:57:33.731Z,19.90
2023-08-12T07:00:01.643Z,20.00
2023-08-12T07:02:29.610Z,20.10
2023-08-12T07:04:57.608Z,20.20
2023-08-12T07:07:26.915Z,20.30
2023-08-12T07:09:55.017Z,20.30
2023-08-12T07:12:22.909Z,20.30
2023-08-12T07:14:51.089Z,20.40
2023-08-12T07:17:19.138Z,20.40
2023-08-12T07:19:47.206Z,20.50
2023-08-12T07:22:15.279Z,20.60
2023-08-12T07:24:44.597Z,20.60
2023-08-12T07:27:12.649Z,20.70
2023-08-12T07:29:40.566Z,20.80
2023-08-12T07:32:08.437Z,20.90
2023-08-12T07:34:36.465Z,20.90
2023-08-12T07:37:04.340Z,20.90
2023-08-12T07:39:32.993Z,20.90
2023-08-12T07:42:02.227Z,20.90
2023-08-12T07:44:30.154Z,20.90
2023-08-12T07:46:58.202Z,21.00
2023-08-12T07:49:26.146Z,21.10
2023-08-12T07:51:54.098Z,21.20
2023-08-12T07:54:22.042Z,21.40
2023-08-12T07:56:49.977Z,21.50
2023-08-12T07:59:19.227Z,21.70
2023-08-12T08:01:47.197Z,21.90
2023-08-12T08:04:15.377Z,22.00
2023-08-12T08:06:43.295Z,22.00
2023-08-12T08:09:11.543Z,22.00
2023-08-12T08:11:39.572Z,22.00
2023-08-12T08:14:07.573Z,21.90
2023-08-12T08:16:37.756Z,21.90
2023-08-12T08:19:05.833Z,22.00
2023-08-12T08:21:33.804Z,22.10
2023-08-12T08:24:02.043Z,22.10
2023-08-12T08:26:30.012Z,22.10
2023-08-12T08:28:57.904Z,22.20
2023-08-12T08:31:26.116Z,22.20
2023-08-12T08:33:56.548Z,22.20
2023-08-12T08:36:24.461Z,22.30
2023-08-12T08:38:52.593Z,22.30
2023-08-12T08:41:21.343Z,22.40
2023-08-12T08:43:50.669Z,22.40
2023-08-12T08:46:19.216Z,22.40
2023-08-12T08:48:48.842Z,22.40
2023-08-12T08:51:19.861Z,22.40
2023-08-12T08:53:48.461Z,22.40
2023-08-12T08:56:16.672Z,22.40
2023-08-12T08:58:44.732Z,22.30
2023-08-12T09:01:13.395Z,22.30
2023-08-12T09:03:44.727Z,22.30
2023-08-12T09:06:13.025Z,22.30
2023-08-12T09:08:45.704Z,22.30
2023-08-12T09:11:15.610Z,22.50
2023-08-12T09:13:43.948Z,22.80
2023-08-12T09:16:12.040Z,22.90
2023-08-12T09:18:40.186Z,22.90
2023-08-12T09:21:08.425Z,23.00
2023-08-12T09:23:37.632Z,23.10
2023-08-12T09:26:15.234Z,23.10
2023-08-12T09:28:43.894Z,23.10
2023-08-12T09:31:24.764Z,23.20
2023-08-12T09:33:53.227Z,23.30
2023-08-12T09:36:23.274Z,23.40
2023-08-12T09:38:51.416Z,23.60
2023-08-12T09:41:21.024Z,23.80
2023-08-12T09:43:48.911Z,24.00
2023-08-12T09:46:16.902Z,24.20
2023-08-12T09:48:45.357Z,24.50
2023-08-12T09:51:13.369Z,24.50
2023-08-12T09:53:44.250Z,24.60
2023-08-12T09:56:15.320Z,24.60
2023-08-12T09:58:45.967Z,24.60
2023-08-12T10:01:14.851Z,24.50
2023-08-12T10:03:46.950Z,24.50
2023-08-12T10:06:16.733Z,24.50
2023-08-12T10:08:45.784Z,24.40
2023-08-12T10:11:14.302Z,24.20
2023-08-12T10:13:44.148Z,24.00
2023-08-12T10:16:12.753Z,23.90
2023-08-12T10:18:41.892Z,23.80
2023-08-12T10:21:12.847Z,23.70
2023-08-12T10:23:42.537Z,23.70
2023-08-12T10:26:11.763Z,23.70
2023-08-12T10:28:39.792Z,23.80
2023-08-12T10:31:09.376Z,23.90
2023-08-12T10:33:38.858Z,24.30
2023-08-12T10:36:08.112Z,24.60
2023-08-12T10:38:36.797Z,24.80
2023-08-12T10:41:19.002Z,24.80
2023-08-12T10:43:57.270Z,24.80
2023-08-12T10:46:32.733Z,24.80
2023-08-12T10:49:04.825Z,24.70
2023-08-12T10:51:49.084Z,24.60
2023-08-12T10:54:23.099Z,24.50
2023-08-12T10:57:15.803Z,24.40
2023-08-12T10:59:54.120Z,24.30
2023-08-12T11:02:28.027Z,24.30
2023-08-12T11:04:58.124Z,24.20
2023-08-12T11:07:33.872Z,24.20
2023-08-12T11:10:06.807Z,24.20
2023-08-12T11:12:36.640Z,24.20
2023-08-12T11:15:06.340Z,24.10
2023-08-12T11:17:40.076Z,24.10
2023-08-12T11:20:10.740Z,24.10
2023-08-12T11:22:39.857Z,24.00
2023-08-12T11:25:09.745Z,24.00
2023-08-12T11:27:42.922Z,24.00
2023-08-12T11:30:12.348Z,24.00
2023-08-12T11:32:42.630Z,24.10
2023-08-12T11:35:12.080Z,24.10
2023-08-12T11:37:40.088Z,24.10
2023-08-12T11:40:10.789Z,24.00
2023-08-12T11:42:39.337Z,24.00
2023-08-12T11:45:09.096Z,24.10
2023-08-12T11:47:38.910Z,24.10
2023-08-12T11:50:09.780Z,24.10
2023-08-12T11:52:38.594Z,24.10
2023-08-12T11:55:07.999Z,24.20
2023-08-12T11:57:36.592Z,24.20
2023-08-12T12:00:12.953Z,24.30
2023-08-12T12:02:47.471Z,24.40
2023-08-12T12:05:23.598Z,24.40
2023-08-12T12:07:52.757Z,24.30
2023-08-12T12:10:21.869Z,24.40
2023-08-12T12:12:50.555Z,24.40
2023-08-12T12:15:18.561Z,24.50
2023-08-12T12:17:47.887Z,24.40
2023-08-12T12:20:17.261Z,24.40
2023-08-12T12:22:47.250Z,24.50
2023-08-12T12:25:17.074Z,24.60
2023-08-12T12:27:47.276Z,24.70
2023-08-12T12:30:17.027Z,24.80
2023-08-12T12:32:46.043Z,24.80
2023-08-12T12:35:14.175Z,24.80
2023-08-12T12:37:43.699Z,24.90
2023-08-12T12:40:13.044Z,24.90
2023-08-12T12:42:41.299Z,25.10
2023-08-12T12:45:10.745Z,25.10
2023-08-12T12:47:39.652Z,25.10
2023-08-12T12:50:08.847Z,25.10
2023-08-12T12:52:37.211Z,25.20
2023-08-12T12:55:07.029Z,25.20
2023-08-12T12:57:35.390Z,25.10
2023-08-12T13:00:05.263Z,25.20
2023-08-12T13:02:33.422Z,25.40
2023-08-12T13:05:01.535Z,25.70
2023-08-12T13:07:29.508Z,25.90
2023-08-12T13:09:57.453Z,26.00
2023-08-12T13:12:26.772Z,26.20
2023-08-12T13:14:54.715Z,26.30
2023-08-12T13:17:22.634Z,26.30
2023-08-12T13:19:50.593Z,26.20
2023-08-12T13:22:18.512Z,26.10
2023-08-12T13:24:46.816Z,26.00
2023-08-12T13:27:15.856Z,25.90
2023-08-12T13:29:45.313Z,26.20
2023-08-12T13:32:13.611Z,26.30
2023-08-12T13:34:44.120Z,26.50
2023-08-12T13:37:12.209Z,26.50
2023-08-12T13:39:41.110Z,26.60
2023-08-12T13:42:09.083Z,26.70
2023-08-12T13:44:37.049Z,26.70
2023-08-12T13:47:06.341Z,26.50
2023-08-12T13:49:34.393Z,26.30
2023-08-12T13:52:02.320Z,26.40
2023-08-12T13:54:30.230Z,26.60
2023-08-12T13:56:58.124Z,26.60
2023-08-12T13:59:27.087Z,26.50
2023-08-12T14:01:55.132Z,26.50
2023-08-12T14:04:24.777Z,26.40
2023-08-12T14:06:53.093Z,26.70
2023-08-12T14:09:23.154Z,26.80
2023-08-12T14:11:51.073Z,27.00
2023-08-12T14:14:19.072Z,26.80
2023-08-12T14:16:47.030Z,26.80
2023-08-12T14:19:17.671Z,27.00
2023-08-12T14:21:47.005Z,27.10
2023-08-12T14:24:15.230Z,27.10
2023-08-12T14:26:43.139Z,27.00
2023-08-12T14:29:11.131Z,26.80
2023-08-12T14:31:39.368Z,26.80
2023-08-12T14:34:07.345Z,27.00
2023-08-12T14:36:37.035Z,27.20
2023-08-12T14:39:06.698Z,27.40
2023-08-12T14:41:35.217Z,27.60
2023-08-12T14:44:03.395Z,27.60
2023-08-12T14:46:31.417Z,27.60
2023-08-12T14:48:59.402Z,27.70
2023-08-12T14:51:27.437Z,27.60
2023-08-12T14:53:55.334Z,27.40
2023-08-12T14:56:24.703Z,27.40
2023-08-12T14:58:52.676Z,27.40
2023-08-12T15:01:20.820Z,27.40
2023-08-12T15:03:48.857Z,27.40
2023-08-12T15:06:17.688Z,27.30
2023-08-12T15:08:45.670Z,27.20
2023-08-12T15:11:13.605Z,27.30
2023-08-12T15:13:42.950Z,27.40
2023-08-12T15:16:12.175Z,27.40
2023-08-12T15:18:40.198Z,27.50
2023-08-12T15:21:08.110Z,27.50
2023-08-12T15:23:36.327Z,27.50
2023-08-12T15:26:04.789Z,27.30
2023-08-12T15:28:32.735Z,27.30
2023-08-12T15:31:02.094Z,27.30
2023-08-12T15:33:30.073Z,27.30
2023-08-12T15:35:58.083Z,27.30
2023-08-12T15:38:26.095Z,27.30
2023-08-12T15:40:54.003Z,27.30
2023-08-12T15:43:22.051Z,27.30
2023-08-12T15:45:50.090Z,27.10
2023-08-12T15:48:19.434Z,27.00
2023-08-12T15:50:47.381Z,26.80
2023-08-12T15:53:15.464Z,26.70
2023-08-12T15:55:43.395Z,26.70
2023-08-12T15:58:11.726Z,26.70
2023-08-12T16:00:44.063Z,26.70
2023-08-12T16:03:12.219Z,26.60
2023-08-12T16:05:41.771Z,26.70
2023-08-12T16:08:10.529Z,26.70
2023-08-12T16:10:38.662Z,26.60
2023-08-12T16:13:07.242Z,26.50
2023-08-12T16:15:35.520Z,26.40
2023-08-12T16:18:03.503Z,26.30
2023-08-12T16:20:31.556Z,26.20
2023-08-12T16:23:01.052Z,26.10
2023-08-12T16:25:29.016Z,25.90
2023-08-12T16:27:56.951Z,25.90
2023-08-12T16:30:24.962Z,25.80
2023-08-12T16:32:52.956Z,25.90
2023-08-12T16:35:21.205Z,25.90
2023-08-12T16:37:49.133Z,26.00
2023-08-12T16:40:20.199Z,26.00
2023-08-12T16:42:48.144Z,25.90
2023-08-12T16:45:16.106Z,25.80
2023-08-12T16:47:44.154Z,25.70
2023-08-12T16:50:12.503Z,25.70
2023-08-12T16:52:40.466Z,25.80
2023-08-12T16:55:09.254Z,25.80
2023-08-12T16:57:38.604Z,25.70
2023-08-12T17:00:08.994Z,25.60
2023-08-12T17:02:36.978Z,25.60
2023-08-12T17:05:05.494Z,25.50
2023-08-12T17:07:33.384Z,25.40
2023-08-12T17:10:01.601Z,25.40
2023-08-12T17:12:29.683Z,25.20
2023-08-12T17:14:58.994Z,25.20
2023-08-12T17:17:27.021Z,25.10
2023-08-12T17:19:55.012Z,25.00
2023-08-12T17:22:23.118Z,24.90
2023-08-12T17:24:51.128Z,25.00
2023-08-12T17:27:19.030Z,24.90
2023-08-12T17:29:46.934Z,24.90
2023-08-12T17:32:16.429Z,24.90
2023-08-12T17:34:44.533Z,24.80
2023-08-12T17:37:12.494Z,24.80
2023-08-12T17:39:41.196Z,24.80
2023-08-12T17:42:09.127Z,24.70
2023-08-12T17:44:37.047Z,24.70
2023-08-12T17:47:05.086Z,24.70
2023-08-12T17:49:34.363Z,24.70
2023-08-12T17:52:03.092Z,24.60
2023-08-12T17:54:31.102Z,24.60
2023-08-12T17:56:59.075Z,24.60
2023-08-12T17:59:26.982Z,24.60
2023-08-12T18:01:54.971Z,24.60
2023-08-12T18:04:22.880Z,24.60
2023-08-12T18:06:52.149Z,24.50
2023-08-12T18:09:20.769Z,24.50
2023-08-12T18:11:48.807Z,24.50
2023-08-12T18:14:17.354Z,24.50
2023-08-12T18:16:45.491Z,24.50
2023-08-12T18:19:13.524Z,24.40
2023-08-12T18:21:41.516Z,24.40
2023-08-12T18:24:10.961Z,24.40
2023-08-12T18:26:38.948Z,24.40
2023-08-12T18:29:08.248Z,24.30
2023-08-12T18:31:39.617Z,24.20
2023-08-12T18:34:08.078Z,24.20
2023-08-12T18:36:36.031Z,24.20
2023-08-12T18:39:04.127Z,24.20
2023-08-12T18:41:33.654Z,24.10
2023-08-12T18:44:01.776Z,24.10
2023-08-12T18:46:30.064Z,24.00
2023-08-12T18:48:58.037Z,24.00
2023-08-12T18:51:25.990Z,24.00
2023-08-12T18:53:55.747Z,24.00
2023-08-12T18:56:24.615Z,23.90
2023-08-12T18:58:54.554Z,23.90
2023-08-12T19:01:23.765Z,23.80
2023-08-12T19:03:51.739Z,23.70
2023-08-12T19:06:19.672Z,23.70
2023-08-12T19:08:47.644Z,23.60
2023-08-12T19:11:15.636Z,23.50
2023-08-12T19:13:43.573Z,23.40
2023-08-12T19:16:12.903Z,23.30
2023-08-12T19:18:40.891Z,23.30
2023-08-12T19:21:09.015Z,23.20
2023-08-12T19:23:36.942Z,23.10
2023-08-12T19:26:04.955Z,23.00
2023-08-12T19:28:32.914Z,22.90
2023-08-12T19:31:00.842Z,22.90
2023-08-12T19:33:30.098Z,22.80
2023-08-12T19:35:58.022Z,22.80
2023-08-12T19:38:26.555Z,22.70
2023-08-12T19:40:55.049Z,22.60
2023-08-12T19:43:23.102Z,22.50
2023-08-12T19:45:51.042Z,22.40
2023-08-12T19:48:19.029Z,22.40
2023-08-12T19:50:50.635Z,22.30
2023-08-12T19:53:18.575Z,22.40
2023-08-12T19:55:46.502Z,22.30
2023-08-12T19:58:14.397Z,22.20
2023-08-12T20:00:42.753Z,22.20
2023-08-12T20:03:10.837Z,22.20
2023-08-12T20:05:38.900Z,22.10
2023-08-12T20:08:09.776Z,22.10
2023-08-12T20:10:37.976Z,22.00
2023-08-12T20:13:06.116Z,21.90
2023-08-12T20:15:34.316Z,21.90
2023-08-12T20:18:02.273Z,21.90
2023-08-12T20:20:30.296Z,21.80
2023-08-12T20:23:06.132Z,21.80
2023-08-12T20:25:37.800Z,21.80
2023-08-12T20:28:06.557Z,21.70
2023-08-12T20:30:34.819Z,21.60
2023-08-12T20:33:03.344Z,21.60
2023-08-12T20:35:32.159Z,21.60
2023-08-12T20:38:00.237Z,21.60
2023-08-12T20:40:28.322Z,21.50
2023-08-12T20:42:57.592Z,21.40
2023-08-12T20:45:25.614Z,21.30
2023-08-12T20:47:53.629Z,21.30
2023-08-12T20:50:21.767Z,21.20
2023-08-12T20:52:49.718Z,21.10
2023-08-12T20:55:17.783Z,21.00
2023-08-12T20:57:47.092Z,21.00
2023-08-12T21:00:16.818Z,21.00
2023-08-12T21:02:45.887Z,20.90
2023-08-12T21:05:14.199Z,20.90
2023-08-12T21:07:42.766Z,20.90
2023-08-12T21:10:11.402Z,20.80
2023-08-12T21:12:39.852Z,20.70
2023-08-12T21:15:08.611Z,20.70
2023-08-12T21:17:37.923Z,20.70
2023-08-12T21:20:06.866Z,20.70
2023-08-12T21:22:34.824Z,20.70
2023-08-12T21:25:02.757Z,20.60
2023-08-12T21:27:30.757Z,20.60
2023-08-12T21:29:58.820Z,20.60
2023-08-12T21:32:26.815Z,20.70
2023-08-12T21:34:56.223Z,20.70
2023-08-12T21:37:24.248Z,20.60
2023-08-12T21:39:52.177Z,20.50
2023-08-12T21:42:20.524Z,20.40
2023-08-12T21:44:48.489Z,20.40
2023-08-12T21:47:16.391Z,20.40
2023-08-12T21:49:44.292Z,20.30
2023-08-12T21:52:13.806Z,20.40
2023-08-12T21:54:44.224Z,20.40
2023-08-12T21:57:12.539Z,20.30
2023-08-12T21:59:40.455Z,20.30
2023-08-12T22:02:08.366Z,20.30
2023-08-12T22:04:36.380Z,20.40
2023-08-12T22:07:05.576Z,20.40
2023-08-12T22:09:35.409Z,20.40
2023-08-12T22:12:04.217Z,20.30
2023-08-12T22:14:33.232Z,20.20
2023-08-12T22:17:01.197Z,20.10
2023-08-12T22:19:29.138Z,20.10
2023-08-12T22:22:05.351Z,20.00
2023-08-12T22:24:42.882Z,20.00
2023-08-12T22:27:10.997Z,20.00
2023-08-12T22:29:40.034Z,20.00
2023-08-12T22:32:08.161Z,20.00
2023-08-12T22:34:36.207Z,20.00
2023-08-12T22:37:04.208Z,20.00
2023-08-12T22:39:32.144Z,20.00
2023-08-12T22:42:01.380Z,19.90
2023-08-12T22:44:29.342Z,19.90
2023-08-12T22:46:57.292Z,19.90
2023-08-12T22:49:25.217Z,19.90
2023-08-12T22:51:53.160Z,19.90
2023-08-12T22:54:22.070Z,19.90
2023-08-12T22:56:50.012Z,19.90
2023-08-12T22:59:19.510Z,19.90
2023-08-12T23:01:47.504Z,19.90
2023-08-12T23:04:15.462Z,19.80
2023-08-12T23:06:43.591Z,19.80
2023-08-12T23:09:11.505Z,19.80
2023-08-12T23:11:39.484Z,19.70
2023-08-12T23:14:07.420Z,19.60
2023-08-12T23:16:36.716Z,19.50
2023-08-12T23:19:04.934Z,19.50
2023-08-12T23:21:35.126Z,19.40
2023-08-12T23:24:03.008Z,19.30
2023-08-12T23:26:32.830Z,19.30
2023-08-12T23:29:00.871Z,19.30
2023-08-12T23:31:28.937Z,19.20
2023-08-12T23:33:58.173Z,19.10
2023-08-12T23:36:26.247Z,19.00
2023-08-12T23:38:54.200Z,19.00
2023-08-12T23:41:22.151Z,19.10
2023-08-12T23:43:50.890Z,19.10
2023-08-12T23:46:18.981Z,19.10
2023-08-12T23:48:46.928Z,19.20
2023-08-12T23:51:16.417Z,19.20
2023-08-12T23:53:44.392Z,19.20
2023-08-12T23:56:12.355Z,19.20
2023-08-12T23:58:40.266Z,19.20
